sensor_id;sensor_type;location;lat;lon;timestamp;temperature;humidity
32753;DHT22;19121;52.428;10.816;2022-07-10T00:01:26;24.40;46.80
32753;DHT22;19121;52.428;10.816;2022-07-10T00:03:51;24.40;46.80
32753;DHT22;19121;52.428;10.816;2022-07-10T00:06:17;24.40;46.80
32753;DHT22;19121;52.428;10.816;2022-07-10T00:08:42;24.40;46.80
32753;DHT22;19121;52.428;10.816;2022-07-10T00:11:09;24.40;46.80
32753;DHT22;19121;52.428;10.816;2022-07-10T00:13:35;24.30;46.70
32753;DHT22;19121;52.428;10.816;2022-07-10T00:16:00;24.30;46.70
32753;DHT22;19121;52.428;10.816;2022-07-10T00:18:27;24.30;46.70
32753;DHT22;19121;52.428;10.816;2022-07-10T00:20:53;24.30;46.70
32753;DHT22;19121;52.428;10.816;2022-07-10T00:23:18;24.30;46.70
32753;DHT22;19121;52.428;10.816;2022-07-10T00:25:44;24.30;46.70
32753;DHT22;19121;52.428;10.816;2022-07-10T00:28:09;24.30;46.70
32753;DHT22;19121;52.428;10.816;2022-07-10T00:30:36;24.30;46.70
32753;DHT22;19121;52.428;10.816;2022-07-10T00:33:02;24.30;46.70
32753;DHT22;19121;52.428;10.816;2022-07-10T00:35:27;24.30;46.70
32753;DHT22;19121;52.428;10.816;2022-07-10T00:37:53;24.30;46.70
32753;DHT22;19121;52.428;10.816;2022-07-10T00:40:18;24.20;46.70
32753;DHT22;19121;52.428;10.816;2022-07-10T00:42:45;24.20;46.70
32753;DHT22;19121;52.428;10.816;2022-07-10T00:45:11;24.20;46.70
32753;DHT22;19121;52.428;10.816;2022-07-10T00:47:36;24.20;47.30
32753;DHT22;19121;52.428;10.816;2022-07-10T00:50:02;24.20;46.70
32753;DHT22;19121;52.428;10.816;2022-07-10T00:52:28;24.20;46.70
32753;DHT22;19121;52.428;10.816;2022-07-10T00:54:54;24.20;46.70
32753;DHT22;19121;52.428;10.816;2022-07-10T00:57:20;24.20;46.70
32753;DHT22;19121;52.428;10.816;2022-07-10T00:59:48;24.20;46.70
32753;DHT22;19121;52.428;10.816;2022-07-10T01:02:14;24.20;46.70
32753;DHT22;19121;52.428;10.816;2022-07-10T01:04:39;24.20;46.70
32753;DHT22;19121;52.428;10.816;2022-07-10T01:07:05;24.20;46.70
32753;DHT22;19121;52.428;10.816;2022-07-10T01:09:32;24.20;46.70
32753;DHT22;19121;52.428;10.816;2022-07-10T01:12:00;24.20;46.70
32753;DHT22;19121;52.428;10.816;2022-07-10T01:14:27;24.20;46.70
32753;DHT22;19121;52.428;10.816;2022-07-10T01:16:53;24.20;46.70
32753;DHT22;19121;52.428;10.816;2022-07-10T01:19:19;24.20;46.70
32753;DHT22;19121;52.428;10.816;2022-07-10T01:21:44;24.20;46.70
32753;DHT22;19121;52.428;10.816;2022-07-10T01:24:10;24.20;46.70
32753;DHT22;19121;52.428;10.816;2022-07-10T01:26:37;24.20;46.70
32753;DHT22;19121;52.428;10.816;2022-07-10T01:29:07;24.10;46.60
32753;DHT22;19121;52.428;10.816;2022-07-10T01:31:33;24.20;46.70
32753;DHT22;19121;52.428;10.816;2022-07-10T01:34:00;24.20;46.70
32753;DHT22;19121;52.428;10.816;2022-07-10T01:36:28;24.10;46.70
32753;DHT22;19121;52.428;10.816;2022-07-10T01:38:55;24.10;46.60
32753;DHT22;19121;52.428;10.816;2022-07-10T01:41:22;24.10;46.70
32753;DHT22;19121;52.428;10.816;2022-07-10T01:43:48;24.10;46.70
32753;DHT22;19121;52.428;10.816;2022-07-10T01:46:14;24.10;46.70
32753;DHT22;19121;52.428;10.816;2022-07-10T01:48:40;24.10;46.70
32753;DHT22;19121;52.428;10.816;2022-07-10T01:51:06;24.10;46.70
32753;DHT22;19121;52.428;10.816;2022-07-10T01:53:32;24.10;46.60
32753;DHT22;19121;52.428;10.816;2022-07-10T01:55:59;24.10;46.70
32753;DHT22;19121;52.428;10.816;2022-07-10T01:58:25;24.10;46.70
32753;DHT22;19121;52.428;10.816;2022-07-10T02:00:51;24.00;46.60
32753;DHT22;19121;52.428;10.816;2022-07-10T02:03:16;24.10;46.70
32753;DHT22;19121;52.428;10.816;2022-07-10T02:06:00;24.10;46.70
32753;DHT22;19121;52.428;10.816;2022-07-10T02:08:26;24.10;46.70
32753;DHT22;19121;52.428;10.816;2022-07-10T02:10:51;24.10;46.70
32753;DHT22;19121;52.428;10.816;2022-07-10T02:13:17;24.10;47.30
32753;DHT22;19121;52.428;10.816;2022-07-10T02:15:48;24.10;46.70
32753;DHT22;19121;52.428;10.816;2022-07-10T02:18:14;24.00;46.70
32753;DHT22;19121;52.428;10.816;2022-07-10T02:20:40;24.00;46.70
32753;DHT22;19121;52.428;10.816;2022-07-10T02:23:05;24.00;46.60
32753;DHT22;19121;52.428;10.816;2022-07-10T02:25:32;24.00;46.60
32753;DHT22;19121;52.428;10.816;2022-07-10T02:27:58;24.10;46.70
32753;DHT22;19121;52.428;10.816;2022-07-10T02:30:23;24.00;46.60
32753;DHT22;19121;52.428;10.816;2022-07-10T02:32:49;24.00;46.70
32753;DHT22;19121;52.428;10.816;2022-07-10T02:35:14;24.00;46.70
32753;DHT22;19121;52.428;10.816;2022-07-10T02:37:40;24.00;46.70
32753;DHT22;19121;52.428;10.816;2022-07-10T02:40:06;24.00;46.70
32753;DHT22;19121;52.428;10.816;2022-07-10T02:42:31;24.00;46.70
32753;DHT22;19121;52.428;10.816;2022-07-10T02:44:57;24.00;46.70
32753;DHT22;19121;52.428;10.816;2022-07-10T02:47:22;24.00;46.70
32753;DHT22;19121;52.428;10.816;2022-07-10T02:49:48;24.00;46.70
32753;DHT22;19121;52.428;10.816;2022-07-10T02:52:13;24.00;46.70
32753;DHT22;19121;52.428;10.816;2022-07-10T02:54:39;24.00;46.70
32753;DHT22;19121;52.428;10.816;2022-07-10T02:57:04;24.00;46.70
32753;DHT22;19121;52.428;10.816;2022-07-10T02:59:30;24.00;46.70
32753;DHT22;19121;52.428;10.816;2022-07-10T03:01:56;23.90;46.60
32753;DHT22;19121;52.428;10.816;2022-07-10T03:04:21;23.90;46.60
32753;DHT22;19121;52.428;10.816;2022-07-10T03:06:46;23.90;46.70
32753;DHT22;19121;52.428;10.816;2022-07-10T03:09:12;23.90;46.70
32753;DHT22;19121;52.428;10.816;2022-07-10T03:11:37;23.90;46.60
32753;DHT22;19121;52.428;10.816;2022-07-10T03:14:03;23.90;46.60
32753;DHT22;19121;52.428;10.816;2022-07-10T03:16:29;23.90;46.60
32753;DHT22;19121;52.428;10.816;2022-07-10T03:18:54;23.90;46.60
32753;DHT22;19121;52.428;10.816;2022-07-10T03:21:20;23.90;46.70
32753;DHT22;19121;52.428;10.816;2022-07-10T03:23:45;23.90;46.60
32753;DHT22;19121;52.428;10.816;2022-07-10T03:26:11;23.90;46.70
32753;DHT22;19121;52.428;10.816;2022-07-10T03:28:36;23.90;46.60
32753;DHT22;19121;52.428;10.816;2022-07-10T03:31:02;23.90;46.70
32753;DHT22;19121;52.428;10.816;2022-07-10T03:33:27;23.90;46.70
32753;DHT22;19121;52.428;10.816;2022-07-10T03:35:53;23.90;46.70
32753;DHT22;19121;52.428;10.816;2022-07-10T03:38:19;23.90;46.70
32753;DHT22;19121;52.428;10.816;2022-07-10T03:40:45;23.90;46.70
32753;DHT22;19121;52.428;10.816;2022-07-10T03:43:13;23.90;46.70
32753;DHT22;19121;52.428;10.816;2022-07-10T03:45:39;23.80;46.60
32753;DHT22;19121;52.428;10.816;2022-07-10T03:48:04;23.90;46.70
32753;DHT22;19121;52.428;10.816;2022-07-10T03:50:30;23.90;46.70
32753;DHT22;19121;52.428;10.816;2022-07-10T03:52:55;23.90;46.70
32753;DHT22;19121;52.428;10.816;2022-07-10T03:55:21;23.80;46.60
32753;DHT22;19121;52.428;10.816;2022-07-10T03:57:46;23.90;46.70
32753;DHT22;19121;52.428;10.816;2022-07-10T04:00:26;23.80;46.60
32753;DHT22;19121;52.428;10.816;2022-07-10T04:02:59;23.80;46.70
32753;DHT22;19121;52.428;10.816;2022-07-10T04:05:26;23.80;46.70
32753;DHT22;19121;52.428;10.816;2022-07-10T04:07:52;23.80;46.70
32753;DHT22;19121;52.428;10.816;2022-07-10T04:10:17;23.80;46.70
32753;DHT22;19121;52.428;10.816;2022-07-10T04:12:43;23.80;46.70
32753;DHT22;19121;52.428;10.816;2022-07-10T04:15:09;23.80;46.70
32753;DHT22;19121;52.428;10.816;2022-07-10T04:17:35;23.80;46.70
32753;DHT22;19121;52.428;10.816;2022-07-10T04:20:01;23.80;46.70
32753;DHT22;19121;52.428;10.816;2022-07-10T04:22:27;23.80;46.70
32753;DHT22;19121;52.428;10.816;2022-07-10T04:24:53;23.80;46.70
32753;DHT22;19121;52.428;10.816;2022-07-10T04:27:19;23.80;46.70
32753;DHT22;19121;52.428;10.816;2022-07-10T04:29:45;23.80;46.70
32753;DHT22;19121;52.428;10.816;2022-07-10T04:32:10;23.80;46.70
32753;DHT22;19121;52.428;10.816;2022-07-10T04:34:36;23.80;46.70
32753;DHT22;19121;52.428;10.816;2022-07-10T04:37:02;23.80;46.70
32753;DHT22;19121;52.428;10.816;2022-07-10T04:39:27;23.80;46.70
32753;DHT22;19121;52.428;10.816;2022-07-10T04:41:54;23.80;46.70
32753;DHT22;19121;52.428;10.816;2022-07-10T04:44:19;23.80;46.70
32753;DHT22;19121;52.428;10.816;2022-07-10T04:46:45;23.80;46.80
32753;DHT22;19121;52.428;10.816;2022-07-10T04:49:10;23.70;46.70
32753;DHT22;19121;52.428;10.816;2022-07-10T04:51:36;23.80;46.80
32753;DHT22;19121;52.428;10.816;2022-07-10T04:54:01;23.80;46.80
32753;DHT22;19121;52.428;10.816;2022-07-10T04:56:26;23.80;46.70
32753;DHT22;19121;52.428;10.816;2022-07-10T04:58:52;23.80;46.80
32753;DHT22;19121;52.428;10.816;2022-07-10T05:01:18;23.80;46.80
32753;DHT22;19121;52.428;10.816;2022-07-10T05:03:43;23.70;46.70
32753;DHT22;19121;52.428;10.816;2022-07-10T05:06:08;23.70;46.70
32753;DHT22;19121;52.428;10.816;2022-07-10T05:08:34;23.70;46.70
32753;DHT22;19121;52.428;10.816;2022-07-10T05:10:59;23.80;46.80
32753;DHT22;19121;52.428;10.816;2022-07-10T05:13:25;23.70;46.70
32753;DHT22;19121;52.428;10.816;2022-07-10T05:15:51;23.70;46.80
32753;DHT22;19121;52.428;10.816;2022-07-10T05:18:16;23.70;46.70
32753;DHT22;19121;52.428;10.816;2022-07-10T05:20:42;23.70;46.70
32753;DHT22;19121;52.428;10.816;2022-07-10T05:23:09;23.70;46.70
32753;DHT22;19121;52.428;10.816;2022-07-10T05:25:35;23.70;46.70
32753;DHT22;19121;52.428;10.816;2022-07-10T05:28:03;23.70;46.70
32753;DHT22;19121;52.428;10.816;2022-07-10T05:30:29;23.70;46.80
32753;DHT22;19121;52.428;10.816;2022-07-10T05:32:54;23.70;46.70
32753;DHT22;19121;52.428;10.816;2022-07-10T05:35:20;23.70;46.80
32753;DHT22;19121;52.428;10.816;2022-07-10T05:37:45;23.70;46.70
32753;DHT22;19121;52.428;10.816;2022-07-10T05:40:11;23.70;46.70
32753;DHT22;19121;52.428;10.816;2022-07-10T05:42:37;23.70;46.80
32753;DHT22;19121;52.428;10.816;2022-07-10T05:45:03;23.70;46.80
32753;DHT22;19121;52.428;10.816;2022-07-10T05:47:29;23.70;46.80
32753;DHT22;19121;52.428;10.816;2022-07-10T05:49:55;23.70;46.80
32753;DHT22;19121;52.428;10.816;2022-07-10T05:52:20;23.70;46.80
32753;DHT22;19121;52.428;10.816;2022-07-10T05:54:46;23.70;46.80
32753;DHT22;19121;52.428;10.816;2022-07-10T05:57:11;23.70;46.80
32753;DHT22;19121;52.428;10.816;2022-07-10T05:59:37;23.70;46.80
32753;DHT22;19121;52.428;10.816;2022-07-10T06:02:03;23.70;46.90
32753;DHT22;19121;52.428;10.816;2022-07-10T06:04:28;23.70;46.80
32753;DHT22;19121;52.428;10.816;2022-07-10T06:06:54;23.70;46.80
32753;DHT22;19121;52.428;10.816;2022-07-10T06:09:19;23.70;46.90
32753;DHT22;19121;52.428;10.816;2022-07-10T06:11:44;23.70;46.90
32753;DHT22;19121;52.428;10.816;2022-07-10T06:14:12;23.70;46.90
32753;DHT22;19121;52.428;10.816;2022-07-10T06:16:37;23.70;46.90
32753;DHT22;19121;52.428;10.816;2022-07-10T06:19:03;23.70;47.00
32753;DHT22;19121;52.428;10.816;2022-07-10T06:21:28;23.70;46.90
32753;DHT22;19121;52.428;10.816;2022-07-10T06:23:54;23.70;47.00
32753;DHT22;19121;52.428;10.816;2022-07-10T06:26:19;23.70;47.00
32753;DHT22;19121;52.428;10.816;2022-07-10T06:28:45;23.70;47.00
32753;DHT22;19121;52.428;10.816;2022-07-10T06:31:10;23.70;47.00
32753;DHT22;19121;52.428;10.816;2022-07-10T06:33:36;23.70;47.00
32753;DHT22;19121;52.428;10.816;2022-07-10T06:36:02;23.70;47.00
32753;DHT22;19121;52.428;10.816;2022-07-10T06:38:27;23.70;46.90
32753;DHT22;19121;52.428;10.816;2022-07-10T06:40:52;23.70;46.90
32753;DHT22;19121;52.428;10.816;2022-07-10T06:43:18;23.70;47.00
32753;DHT22;19121;52.428;10.816;2022-07-10T06:45:44;23.70;46.90
32753;DHT22;19121;52.428;10.816;2022-07-10T06:48:10;23.80;46.90
32753;DHT22;19121;52.428;10.816;2022-07-10T06:50:36;23.70;47.00
32753;DHT22;19121;52.428;10.816;2022-07-10T06:53:02;23.70;47.00
32753;DHT22;19121;52.428;10.816;2022-07-10T06:55:28;23.70;47.00
32753;DHT22;19121;52.428;10.816;2022-07-10T06:57:54;23.80;47.00
32753;DHT22;19121;52.428;10.816;2022-07-10T07:00:20;23.70;47.00
32753;DHT22;19121;52.428;10.816;2022-07-10T07:02:46;23.80;47.10
32753;DHT22;19121;52.428;10.816;2022-07-10T07:05:11;23.70;47.00
32753;DHT22;19121;52.428;10.816;2022-07-10T07:07:37;23.80;47.00
32753;DHT22;19121;52.428;10.816;2022-07-10T07:10:05;23.70;47.00
32753;DHT22;19121;52.428;10.816;2022-07-10T07:12:30;23.80;47.00
32753;DHT22;19121;52.428;10.816;2022-07-10T07:14:56;23.70;47.00
32753;DHT22;19121;52.428;10.816;2022-07-10T07:17:22;23.80;47.00
32753;DHT22;19121;52.428;10.816;2022-07-10T07:19:49;23.80;47.00
32753;DHT22;19121;52.428;10.816;2022-07-10T07:22:33;23.80;47.10
32753;DHT22;19121;52.428;10.816;2022-07-10T07:25:17;23.80;47.00
32753;DHT22;19121;52.428;10.816;2022-07-10T07:27:43;23.80;47.00
32753;DHT22;19121;52.428;10.816;2022-07-10T07:30:11;23.80;47.00
32753;DHT22;19121;52.428;10.816;2022-07-10T07:32:37;23.80;47.10
32753;DHT22;19121;52.428;10.816;2022-07-10T07:35:04;23.80;47.10
32753;DHT22;19121;52.428;10.816;2022-07-10T07:37:41;23.80;47.10
32753;DHT22;19121;52.428;10.816;2022-07-10T07:40:09;23.80;47.10
32753;DHT22;19121;52.428;10.816;2022-07-10T07:42:35;23.90;47.20
32753;DHT22;19121;52.428;10.816;2022-07-10T07:45:01;23.80;47.10
32753;DHT22;19121;52.428;10.816;2022-07-10T07:47:27;23.90;47.10
32753;DHT22;19121;52.428;10.816;2022-07-10T07:49:52;23.90;47.10
32753;DHT22;19121;52.428;10.816;2022-07-10T07:52:18;23.90;47.10
32753;DHT22;19121;52.428;10.816;2022-07-10T07:54:43;23.90;47.10
32753;DHT22;19121;52.428;10.816;2022-07-10T07:57:09;23.90;47.10
32753;DHT22;19121;52.428;10.816;2022-07-10T07:59:35;23.90;47.00
32753;DHT22;19121;52.428;10.816;2022-07-10T08:02:00;23.90;47.60
32753;DHT22;19121;52.428;10.816;2022-07-10T08:04:26;24.00;47.00
32753;DHT22;19121;52.428;10.816;2022-07-10T08:06:51;24.00;47.00
32753;DHT22;19121;52.428;10.816;2022-07-10T08:09:19;24.00;46.90
32753;DHT22;19121;52.428;10.816;2022-07-10T08:11:45;24.00;46.90
32753;DHT22;19121;52.428;10.816;2022-07-10T08:14:10;24.00;46.80
32753;DHT22;19121;52.428;10.816;2022-07-10T08:16:35;24.00;46.80
32753;DHT22;19121;52.428;10.816;2022-07-10T08:19:01;24.00;46.70
32753;DHT22;19121;52.428;10.816;2022-07-10T08:21:26;24.00;46.80
32753;DHT22;19121;52.428;10.816;2022-07-10T08:23:52;24.00;46.70
32753;DHT22;19121;52.428;10.816;2022-07-10T08:26:19;24.00;46.80
32753;DHT22;19121;52.428;10.816;2022-07-10T08:28:44;24.00;46.80
32753;DHT22;19121;52.428;10.816;2022-07-10T08:31:09;24.00;46.70
32753;DHT22;19121;52.428;10.816;2022-07-10T08:33:35;24.00;46.70
32753;DHT22;19121;52.428;10.816;2022-07-10T08:36:01;24.00;46.70
32753;DHT22;19121;52.428;10.816;2022-07-10T08:38:26;24.00;46.80
32753;DHT22;19121;52.428;10.816;2022-07-10T08:40:53;24.10;46.80
32753;DHT22;19121;52.428;10.816;2022-07-10T08:43:22;24.00;46.80
32753;DHT22;19121;52.428;10.816;2022-07-10T08:45:48;24.10;46.90
32753;DHT22;19121;52.428;10.816;2022-07-10T08:48:22;24.10;46.90
32753;DHT22;19121;52.428;10.816;2022-07-10T08:50:52;24.10;46.90
32753;DHT22;19121;52.428;10.816;2022-07-10T08:53:30;24.10;46.90
32753;DHT22;19121;52.428;10.816;2022-07-10T08:55:56;24.10;46.90
32753;DHT22;19121;52.428;10.816;2022-07-10T08:58:22;24.10;46.80
32753;DHT22;19121;52.428;10.816;2022-07-10T09:00:48;24.20;46.90
32753;DHT22;19121;52.428;10.816;2022-07-10T09:03:14;24.20;46.80
32753;DHT22;19121;52.428;10.816;2022-07-10T09:05:39;24.20;46.70
32753;DHT22;19121;52.428;10.816;2022-07-10T09:08:24;24.20;46.70
32753;DHT22;19121;52.428;10.816;2022-07-10T09:10:52;24.20;46.60
32753;DHT22;19121;52.428;10.816;2022-07-10T09:13:18;24.20;46.60
32753;DHT22;19121;52.428;10.816;2022-07-10T09:15:48;24.20;46.60
32753;DHT22;19121;52.428;10.816;2022-07-10T09:18:18;24.20;46.60
32753;DHT22;19121;52.428;10.816;2022-07-10T09:20:44;24.20;46.60
32753;DHT22;19121;52.428;10.816;2022-07-10T09:23:21;24.20;46.60
32753;DHT22;19121;52.428;10.816;2022-07-10T09:25:48;24.30;46.70
32753;DHT22;19121;52.428;10.816;2022-07-10T09:28:16;24.30;46.60
32753;DHT22;19121;52.428;10.816;2022-07-10T09:30:42;24.30;46.60
32753;DHT22;19121;52.428;10.816;2022-07-10T09:36:11;24.30;46.60
32753;DHT22;19121;52.428;10.816;2022-07-10T09:41:29;24.30;46.60
32753;DHT22;19121;52.428;10.816;2022-07-10T09:43:56;24.40;47.30
32753;DHT22;19121;52.428;10.816;2022-07-10T09:46:27;24.40;46.70
32753;DHT22;19121;52.428;10.816;2022-07-10T09:51:38;24.40;46.60
32753;DHT22;19121;52.428;10.816;2022-07-10T09:54:06;24.40;46.60
32753;DHT22;19121;52.428;10.816;2022-07-10T09:56:44;24.40;46.60
32753;DHT22;19121;52.428;10.816;2022-07-10T09:59:13;24.40;46.50
32753;DHT22;19121;52.428;10.816;2022-07-10T10:01:49;24.50;46.60
32753;DHT22;19121;52.428;10.816;2022-07-10T10:04:16;24.50;46.60
32753;DHT22;19121;52.428;10.816;2022-07-10T10:06:43;24.50;46.60
32753;DHT22;19121;52.428;10.816;2022-07-10T10:09:12;24.50;46.70
32753;DHT22;19121;52.428;10.816;2022-07-10T10:11:38;24.50;46.60
32753;DHT22;19121;52.428;10.816;2022-07-10T10:14:07;24.50;46.60
32753;DHT22;19121;52.428;10.816;2022-07-10T10:16:33;24.50;46.50
32753;DHT22;19121;52.428;10.816;2022-07-10T10:19:01;24.50;46.60
32753;DHT22;19121;52.428;10.816;2022-07-10T10:21:46;24.50;46.50
32753;DHT22;19121;52.428;10.816;2022-07-10T10:24:13;24.50;46.50
32753;DHT22;19121;52.428;10.816;2022-07-10T10:26:39;24.50;46.50
32753;DHT22;19121;52.428;10.816;2022-07-10T10:29:06;24.60;46.60
32753;DHT22;19121;52.428;10.816;2022-07-10T10:31:32;24.60;46.60
32753;DHT22;19121;52.428;10.816;2022-07-10T10:33:58;24.60;46.60
32753;DHT22;19121;52.428;10.816;2022-07-10T10:39:20;24.60;46.60
32753;DHT22;19121;52.428;10.816;2022-07-10T10:41:53;24.70;46.60
32753;DHT22;19121;52.428;10.816;2022-07-10T10:44:20;24.60;46.50
32753;DHT22;19121;52.428;10.816;2022-07-10T10:47:00;24.70;46.50
32753;DHT22;19121;52.428;10.816;2022-07-10T10:52:13;24.70;46.40
32753;DHT22;19121;52.428;10.816;2022-07-10T11:00:02;24.80;46.40
32753;DHT22;19121;52.428;10.816;2022-07-10T11:02:33;24.80;46.40
32753;DHT22;19121;52.428;10.816;2022-07-10T11:07:58;24.80;46.40
32753;DHT22;19121;52.428;10.816;2022-07-10T11:10:38;24.80;46.30
32753;DHT22;19121;52.428;10.816;2022-07-10T11:13:05;24.80;46.40
32753;DHT22;19121;52.428;10.816;2022-07-10T11:15:32;24.80;46.30
32753;DHT22;19121;52.428;10.816;2022-07-10T11:18:19;24.80;46.40
32753;DHT22;19121;52.428;10.816;2022-07-10T11:20:49;24.80;46.40
32753;DHT22;19121;52.428;10.816;2022-07-10T11:26:06;24.90;46.40
32753;DHT22;19121;52.428;10.816;2022-07-10T11:28:54;24.80;46.30
32753;DHT22;19121;52.428;10.816;2022-07-10T11:31:21;24.80;46.40
32753;DHT22;19121;52.428;10.816;2022-07-10T11:33:48;24.90;46.40
32753;DHT22;19121;52.428;10.816;2022-07-10T11:36:18;24.90;46.40
32753;DHT22;19121;52.428;10.816;2022-07-10T11:38:45;24.90;46.40
32753;DHT22;19121;52.428;10.816;2022-07-10T11:41:15;24.90;46.40
32753;DHT22;19121;52.428;10.816;2022-07-10T11:43:52;24.90;46.40
32753;DHT22;19121;52.428;10.816;2022-07-10T11:46:23;24.90;46.40
32753;DHT22;19121;52.428;10.816;2022-07-10T11:48:50;24.90;46.30
32753;DHT22;19121;52.428;10.816;2022-07-10T11:54:01;24.90;46.30
32753;DHT22;19121;52.428;10.816;2022-07-10T11:56:29;25.00;46.30
32753;DHT22;19121;52.428;10.816;2022-07-10T11:58:59;24.90;46.30
32753;DHT22;19121;52.428;10.816;2022-07-10T12:01:25;25.00;46.40
32753;DHT22;19121;52.428;10.816;2022-07-10T12:04:10;24.90;46.30
32753;DHT22;19121;52.428;10.816;2022-07-10T12:06:37;25.00;46.30
32753;DHT22;19121;52.428;10.816;2022-07-10T12:09:14;25.00;46.40
32753;DHT22;19121;52.428;10.816;2022-07-10T12:11:41;25.00;46.30
32753;DHT22;19121;52.428;10.816;2022-07-10T12:14:20;25.00;46.30
32753;DHT22;19121;52.428;10.816;2022-07-10T12:16:47;25.10;46.30
32753;DHT22;19121;52.428;10.816;2022-07-10T12:19:18;25.00;46.30
32753;DHT22;19121;52.428;10.816;2022-07-10T12:21:45;25.00;46.30
32753;DHT22;19121;52.428;10.816;2022-07-10T12:24:11;25.00;46.20
32753;DHT22;19121;52.428;10.816;2022-07-10T12:26:40;25.00;46.30
32753;DHT22;19121;52.428;10.816;2022-07-10T12:29:11;25.10;46.30
32753;DHT22;19121;52.428;10.816;2022-07-10T12:31:44;25.10;46.30
32753;DHT22;19121;52.428;10.816;2022-07-10T12:34:10;25.10;46.30
32753;DHT22;19121;52.428;10.816;2022-07-10T12:36:51;25.10;46.30
32753;DHT22;19121;52.428;10.816;2022-07-10T12:39:19;25.10;46.30
32753;DHT22;19121;52.428;10.816;2022-07-10T12:44:35;25.10;46.30
32753;DHT22;19121;52.428;10.816;2022-07-10T12:47:20;25.10;46.20
32753;DHT22;19121;52.428;10.816;2022-07-10T12:50:05;25.10;46.20
32753;DHT22;19121;52.428;10.816;2022-07-10T12:52:32;25.10;46.30
32753;DHT22;19121;52.428;10.816;2022-07-10T12:55:08;25.10;46.20
32753;DHT22;19121;52.428;10.816;2022-07-10T12:58:10;25.10;46.20
32753;DHT22;19121;52.428;10.816;2022-07-10T13:00:45;25.10;46.20
32753;DHT22;19121;52.428;10.816;2022-07-10T13:03:18;25.10;46.20
32753;DHT22;19121;52.428;10.816;2022-07-10T13:05:44;25.10;46.20
32753;DHT22;19121;52.428;10.816;2022-07-10T13:10:57;25.10;46.20
32753;DHT22;19121;52.428;10.816;2022-07-10T13:13:23;25.10;46.20
32753;DHT22;19121;52.428;10.816;2022-07-10T13:15:49;25.10;46.80
32753;DHT22;19121;52.428;10.816;2022-07-10T13:18:17;25.10;46.20
32753;DHT22;19121;52.428;10.816;2022-07-10T13:20:46;25.10;46.20
32753;DHT22;19121;52.428;10.816;2022-07-10T13:23:12;25.10;46.20
32753;DHT22;19121;52.428;10.816;2022-07-10T13:25:38;25.10;46.20
32753;DHT22;19121;52.428;10.816;2022-07-10T13:28:05;25.20;46.20
32753;DHT22;19121;52.428;10.816;2022-07-10T13:30:31;25.10;46.20
32753;DHT22;19121;52.428;10.816;2022-07-10T13:32:56;25.20;46.20
32753;DHT22;19121;52.428;10.816;2022-07-10T13:35:22;25.20;46.30
32753;DHT22;19121;52.428;10.816;2022-07-10T13:37:48;25.20;46.50
32753;DHT22;19121;52.428;10.816;2022-07-10T13:40:13;25.20;46.60
32753;DHT22;19121;52.428;10.816;2022-07-10T13:42:39;25.20;46.70
32753;DHT22;19121;52.428;10.816;2022-07-10T13:45:05;25.20;47.10
32753;DHT22;19121;52.428;10.816;2022-07-10T13:47:31;25.20;47.50
32753;DHT22;19121;52.428;10.816;2022-07-10T13:49:56;25.20;47.70
32753;DHT22;19121;52.428;10.816;2022-07-10T13:52:21;25.20;47.70
32753;DHT22;19121;52.428;10.816;2022-07-10T13:54:47;25.30;47.70
32753;DHT22;19121;52.428;10.816;2022-07-10T13:57:13;25.30;47.80
32753;DHT22;19121;52.428;10.816;2022-07-10T13:59:39;25.30;47.70
32753;DHT22;19121;52.428;10.816;2022-07-10T14:02:04;25.40;48.00
32753;DHT22;19121;52.428;10.816;2022-07-10T14:04:30;25.40;48.20
32753;DHT22;19121;52.428;10.816;2022-07-10T14:06:55;25.40;48.20
32753;DHT22;19121;52.428;10.816;2022-07-10T14:09:21;25.50;48.30
32753;DHT22;19121;52.428;10.816;2022-07-10T14:11:49;25.50;48.40
32753;DHT22;19121;52.428;10.816;2022-07-10T14:14:15;25.50;48.40
32753;DHT22;19121;52.428;10.816;2022-07-10T14:16:40;25.40;48.40
32753;DHT22;19121;52.428;10.816;2022-07-10T14:19:07;25.40;48.30
32753;DHT22;19121;52.428;10.816;2022-07-10T14:21:33;25.40;48.30
32753;DHT22;19121;52.428;10.816;2022-07-10T14:23:58;25.40;48.20
32753;DHT22;19121;52.428;10.816;2022-07-10T14:26:24;25.40;48.20
32753;DHT22;19121;52.428;10.816;2022-07-10T14:28:49;25.40;48.20
32753;DHT22;19121;52.428;10.816;2022-07-10T14:31:16;25.40;48.10
32753;DHT22;19121;52.428;10.816;2022-07-10T14:33:43;25.40;48.00
32753;DHT22;19121;52.428;10.816;2022-07-10T14:36:08;25.40;48.00
32753;DHT22;19121;52.428;10.816;2022-07-10T14:38:34;25.40;48.00
32753;DHT22;19121;52.428;10.816;2022-07-10T14:40:59;25.40;47.90
32753;DHT22;19121;52.428;10.816;2022-07-10T14:43:25;25.40;47.90
32753;DHT22;19121;52.428;10.816;2022-07-10T14:45:51;25.40;47.90
32753;DHT22;19121;52.428;10.816;2022-07-10T14:48:17;25.30;47.80
32753;DHT22;19121;52.428;10.816;2022-07-10T14:50:42;25.30;47.70
32753;DHT22;19121;52.428;10.816;2022-07-10T14:53:08;25.40;47.80
32753;DHT22;19121;52.428;10.816;2022-07-10T14:55:34;25.40;47.70
32753;DHT22;19121;52.428;10.816;2022-07-10T14:58:15;25.40;47.70
32753;DHT22;19121;52.428;10.816;2022-07-10T15:00:41;25.40;47.70
32753;DHT22;19121;52.428;10.816;2022-07-10T15:03:06;25.40;47.60
32753;DHT22;19121;52.428;10.816;2022-07-10T15:05:32;25.40;47.60
32753;DHT22;19121;52.428;10.816;2022-07-10T15:07:59;25.30;47.50
32753;DHT22;19121;52.428;10.816;2022-07-10T15:10:24;25.40;47.60
32753;DHT22;19121;52.428;10.816;2022-07-10T15:12:50;25.30;47.50
32753;DHT22;19121;52.428;10.816;2022-07-10T15:15:15;25.40;47.50
32753;DHT22;19121;52.428;10.816;2022-07-10T15:17:41;25.40;47.50
32753;DHT22;19121;52.428;10.816;2022-07-10T15:20:06;25.40;47.50
32753;DHT22;19121;52.428;10.816;2022-07-10T15:22:32;25.40;47.40
32753;DHT22;19121;52.428;10.816;2022-07-10T15:24:58;25.30;47.40
32753;DHT22;19121;52.428;10.816;2022-07-10T15:27:23;25.30;47.40
32753;DHT22;19121;52.428;10.816;2022-07-10T15:29:49;25.30;47.40
32753;DHT22;19121;52.428;10.816;2022-07-10T15:32:14;25.30;47.40
32753;DHT22;19121;52.428;10.816;2022-07-10T15:34:40;25.30;47.30
32753;DHT22;19121;52.428;10.816;2022-07-10T15:37:05;25.30;47.30
32753;DHT22;19121;52.428;10.816;2022-07-10T15:39:31;25.30;47.30
32753;DHT22;19121;52.428;10.816;2022-07-10T15:42:07;25.30;47.30
32753;DHT22;19121;52.428;10.816;2022-07-10T15:44:32;25.30;47.20
32753;DHT22;19121;52.428;10.816;2022-07-10T15:46:58;25.30;47.20
32753;DHT22;19121;52.428;10.816;2022-07-10T15:49:23;25.30;47.20